createdAt,value
2018-02-10T00:00:09.926Z,0.14
2018-02-10T00:02:38.214Z,0.17
2018-02-10T00:05:06.467Z,0.03
2018-02-10T00:07:35.505Z,-0.03
2018-02-10T00:10:03.776Z,0.06
2018-02-10T00:12:32.048Z,0.12
2018-02-10T00:15:00.315Z,-0.01
2018-02-10T00:17:28.604Z,-0.01
2018-02-10T00:19:56.870Z,0.08
2018-02-10T00:22:35.145Z,0.12
2018-02-10T00:25:04.174Z,0.14
2018-02-10T00:27:32.463Z,-0.02
2018-02-10T00:30:00.748Z,0.03
2018-02-10T00:32:29.021Z,0.03
2018-02-10T00:34:57.290Z,-0.15
2018-02-10T00:37:25.565Z,-0.23
2018-02-10T00:39:53.830Z,-0.15
2018-02-10T00:42:22.098Z,-0.21
2018-02-10T00:44:50.353Z,-0.15
2018-02-10T00:47:18.618Z,-0.22
2018-02-10T00:49:47.648Z,-0.15
2018-02-10T00:52:15.925Z,-0.23
2018-02-10T00:54:44.227Z,-0.17
2018-02-10T00:57:12.456Z,-0.23
2018-02-10T00:59:40.744Z,-0.06
2018-02-10T01:02:09.006Z,-0.14
2018-02-10T01:04:37.273Z,-0.12
2018-02-10T01:07:06.293Z,-0.09
2018-02-10T01:09:34.562Z,-0.08
2018-02-10T01:12:02.819Z,-0.10
2018-02-10T01:14:31.089Z,-0.15
2018-02-10T01:17:00.117Z,-0.09
2018-02-10T01:19:28.385Z,-0.03
2018-02-10T01:21:56.645Z,0.09
2018-02-10T01:24:24.916Z,0.06
2018-02-10T01:26:53.940Z,-0.09
2018-02-10T01:29:22.211Z,-0.15
2018-02-10T01:31:50.469Z,-0.13
2018-02-10T01:34:18.750Z,-0.11
2018-02-10T01:36:47.017Z,-0.07
2018-02-10T01:39:16.042Z,-0.08
2018-02-10T01:41:44.311Z,-0.07
2018-02-10T01:44:12.580Z,-0.12
2018-02-10T01:46:40.838Z,-0.16
2018-02-10T01:49:09.105Z,-0.11
2018-02-10T01:51:38.142Z,-0.07
2018-02-10T01:54:06.454Z,-0.07
2018-02-10T01:56:34.713Z,0.06
2018-02-10T01:59:02.983Z,0.13
2018-02-10T02:01:31.241Z,0.08
2018-02-10T02:03:59.497Z,0.07
2018-02-10T02:06:27.758Z,0.02
2018-02-10T02:08:56.038Z,-0.09
2018-02-10T02:11:24.309Z,-0.12
2018-02-10T02:13:52.578Z,-0.08
2018-02-10T02:16:21.615Z,-0.05
2018-02-10T02:18:49.867Z,-0.07
2018-02-10T02:21:18.130Z,0.03
2018-02-10T02:23:46.390Z,0.09
2018-02-10T02:26:15.421Z,0.09
2018-02-10T02:28:43.684Z,-0.04
2018-02-10T02:31:11.951Z,-0.17
2018-02-10T02:33:40.221Z,-0.26
2018-02-10T02:36:09.253Z,-0.22
2018-02-10T02:38:37.510Z,-0.27
2018-02-10T02:41:05.787Z,-0.24
2018-02-10T02:43:34.054Z,-0.22
2018-02-10T02:46:02.324Z,-0.31
2018-02-10T02:48:30.587Z,-0.31
2018-02-10T02:50:59.623Z,-0.26
2018-02-10T02:53:27.885Z,-0.40
2018-02-10T02:55:56.158Z,-0.37
2018-02-10T02:58:24.416Z,-0.37
2018-02-10T03:00:53.446Z,-0.34
2018-02-10T03:03:21.701Z,-0.36
2018-02-10T03:05:49.969Z,-0.37
2018-02-10T03:08:18.238Z,-0.40
2018-02-10T03:10:46.520Z,-0.28
2018-02-10T03:13:14.782Z,-0.29
2018-02-10T03:15:43.809Z,-0.31
2018-02-10T03:18:12.069Z,-0.39
2018-02-10T03:20:40.333Z,-0.34
2018-02-10T03:23:08.603Z,-0.32
2018-02-10T03:25:37.682Z,-0.29
2018-02-10T03:28:05.938Z,-0.46
2018-02-10T03:30:34.189Z,-0.43
2018-02-10T03:33:02.458Z,-0.50
2018-02-10T03:35:30.730Z,-0.47
2018-02-10T03:37:59.001Z,-0.57
2018-02-10T03:40:27.266Z,-0.51
2018-02-10T03:42:55.536Z,-0.41
2018-02-10T03:45:23.842Z,-0.40
2018-02-10T03:47:52.833Z,-0.42
2018-02-10T03:50:21.101Z,-0.34
2018-02-10T03:52:49.365Z,-0.34
2018-02-10T03:55:17.625Z,-0.38
2018-02-10T03:57:46.652Z,-0.30
2018-02-10T04:00:14.917Z,-0.44
2018-02-10T04:02:43.200Z,-0.36
2018-02-10T04:05:11.458Z,-0.29
2018-02-10T04:07:39.725Z,-0.33
2018-02-10T04:10:07.982Z,-0.49
2018-02-10T04:12:37.023Z,-0.55
2018-02-10T04:15:05.281Z,-0.59
2018-02-10T04:17:33.545Z,-0.54
2018-02-10T04:20:01.810Z,-0.61
2018-02-10T04:22:30.852Z,-0.76
2018-02-10T04:24:59.106Z,-0.56
2018-02-10T04:27:27.383Z,-0.53
2018-02-10T04:29:55.646Z,-0.69
2018-02-10T04:32:23.920Z,-0.71
2018-02-10T04:34:52.180Z,-0.70
2018-02-10T04:37:21.231Z,-0.66
2018-02-10T04:39:49.486Z,-0.71
2018-02-10T04:42:17.754Z,-0.70
2018-02-10T04:44:46.018Z,-0.69
2018-02-10T04:47:14.286Z,-0.72
2018-02-10T04:49:43.318Z,-0.70
2018-02-10T04:52:11.587Z,-0.67
2018-02-10T04:54:39.840Z,-0.74
2018-02-10T04:57:08.116Z,-0.72
2018-02-10T04:59:36.382Z,-0.70
2018-02-10T05:02:05.420Z,-0.62
2018-02-10T05:04:33.677Z,-0.62
2018-02-10T05:07:01.950Z,-0.64
2018-02-10T05:09:30.205Z,-0.64
2018-02-10T05:11:58.490Z,-0.60
2018-02-10T05:14:26.758Z,-0.49
2018-02-10T05:16:55.029Z,-0.46
2018-02-10T05:19:24.059Z,-0.40
2018-02-10T05:21:52.336Z,-0.42
2018-02-10T05:24:20.603Z,-0.43
2018-02-10T05:26:48.868Z,-0.47
2018-02-10T05:29:17.128Z,-0.31
2018-02-10T05:31:45.408Z,-0.29
2018-02-10T05:34:14.435Z,-0.30
2018-02-10T05:36:42.704Z,-0.25
2018-02-10T05:39:10.960Z,-0.33
2018-02-10T05:41:39.233Z,-0.22
2018-02-10T05:44:07.488Z,-0.27
2018-02-10T05:46:36.525Z,-0.27
2018-02-10T05:49:04.807Z,-0.27
2018-02-10T05:51:33.058Z,-0.17
2018-02-10T05:54:01.326Z,-0.23
2018-02-10T05:56:29.589Z,-0.19
2018-02-10T05:58:58.629Z,-0.28
2018-02-10T06:01:26.891Z,-0.35
2018-02-10T06:03:55.172Z,-0.25
2018-02-10T06:06:23.434Z,-0.24
2018-02-10T06:08:51.720Z,-0.25
2018-02-10T06:11:19.970Z,-0.30
2018-02-10T06:13:48.242Z,-0.25
2018-02-10T06:16:17.272Z,-0.28
2018-02-10T06:18:45.539Z,-0.26
2018-02-10T06:21:13.793Z,-0.16
2018-02-10T06:23:42.058Z,-0.08
2018-02-10T06:26:11.085Z,-0.30
2018-02-10T06:28:39.355Z,-0.40
2018-02-10T06:31:07.614Z,-0.41
2018-02-10T06:33:35.883Z,-0.45
2018-02-10T06:36:04.901Z,-0.76
2018-02-10T06:38:33.161Z,-0.80
2018-02-10T06:41:01.435Z,-0.79
2018-02-10T06:43:29.712Z,-0.57
2018-02-10T06:45:58.731Z,-0.50
2018-02-10T06:48:27.000Z,-0.48
2018-02-10T06:50:55.271Z,-0.52
2018-02-10T06:53:23.546Z,-0.56
2018-02-10T06:55:51.810Z,-0.47
2018-02-10T06:58:20.087Z,-0.35
2018-02-10T07:00:48.338Z,-0.23
2018-02-10T07:03:17.375Z,-0.24
2018-02-10T07:05:45.634Z,-0.24
2018-02-10T07:08:13.910Z,-0.37
2018-02-10T07:10:42.162Z,-0.40
2018-02-10T07:13:11.195Z,-0.31
2018-02-10T07:15:39.458Z,-0.34
2018-02-10T07:18:07.732Z,-0.32
2018-02-10T07:20:35.986Z,-0.33
2018-02-10T07:23:05.063Z,-0.32
2018-02-10T07:25:33.318Z,-0.36
2018-02-10T07:28:01.573Z,-0.31
2018-02-10T07:30:30.613Z,-0.38
2018-02-10T07:32:59.659Z,-0.41
2018-02-10T07:35:27.916Z,-0.42
2018-02-10T07:37:56.191Z,-0.29
2018-02-10T07:40:24.458Z,-0.13
2018-02-10T07:42:52.723Z,-0.05
2018-02-10T07:45:21.761Z,-0.03
2018-02-10T07:47:50.800Z,0.00
2018-02-10T07:50:19.839Z,-0.08
2018-02-10T07:52:48.102Z,-0.19
2018-02-10T07:55:16.383Z,-0.12
2018-02-10T07:57:44.638Z,-0.04
2018-02-10T08:00:13.671Z,-0.07
2018-02-10T08:02:41.937Z,-0.07
2018-02-10T08:05:10.209Z,0.06
2018-02-10T08:07:38.465Z,0.21
2018-02-10T08:10:07.475Z,0.17
2018-02-10T08:12:35.729Z,0.25
2018-02-10T08:15:03.995Z,0.30
2018-02-10T08:17:33.020Z,0.36
2018-02-10T08:20:01.277Z,0.41
2018-02-10T08:22:29.543Z,0.37
2018-02-10T08:24:58.556Z,0.38
2018-02-10T08:27:26.818Z,0.43
2018-02-10T08:29:55.071Z,0.39
2018-02-10T08:32:23.338Z,0.48
2018-02-10T08:34:51.605Z,0.52
2018-02-10T08:37:19.870Z,0.50
2018-02-10T08:39:48.122Z,0.65
2018-02-10T08:42:16.386Z,0.71
2018-02-10T08:44:44.624Z,0.69
2018-02-10T08:47:13.656Z,0.72
2018-02-10T08:49:41.906Z,0.91
2018-02-10T08:52:10.923Z,1.05
2018-02-10T08:54:39.193Z,0.78
2018-02-10T08:57:07.457Z,0.95
2018-02-10T08:59:36.478Z,0.94
2018-02-10T09:02:04.726Z,0.85
2018-02-10T09:04:32.987Z,0.96
2018-02-10T09:07:01.243Z,0.79
2018-02-10T09:09:29.505Z,0.92
2018-02-10T09:11:57.765Z,0.82
2018-02-10T09:14:26.045Z,0.75
2018-02-10T09:16:54.285Z,0.86
2018-02-10T09:19:22.546Z,0.90
2018-02-10T09:21:51.594Z,0.89
2018-02-10T09:24:19.838Z,1.06
2018-02-10T09:26:48.090Z,1.06
2018-02-10T09:29:17.108Z,1.26
2018-02-10T09:31:45.371Z,1.17
2018-02-10T09:34:14.385Z,1.20
2018-02-10T09:36:42.634Z,1.33
2018-02-10T09:39:11.656Z,1.27
2018-02-10T09:41:39.901Z,1.26
2018-02-10T09:44:08.924Z,1.16
2018-02-10T09:46:37.177Z,1.49
2018-02-10T09:49:06.195Z,1.46
2018-02-10T09:51:34.445Z,1.56
2018-02-10T09:54:03.472Z,1.36
2018-02-10T09:56:31.723Z,1.53
2018-02-10T09:58:59.982Z,1.40
2018-02-10T10:01:29.008Z,1.43
2018-02-10T10:03:57.259Z,1.36
2018-02-10T10:06:25.515Z,1.62
2018-02-10T10:08:53.773Z,1.73
2018-02-10T10:11:22.022Z,1.84
2018-02-10T10:13:50.285Z,1.72
2018-02-10T10:16:18.533Z,1.62
2018-02-10T10:18:46.799Z,1.76
2018-02-10T10:21:15.813Z,1.63
2018-02-10T10:23:44.062Z,1.63
2018-02-10T10:26:13.086Z,1.62
2018-02-10T10:28:41.336Z,1.50
2018-02-10T10:31:10.363Z,1.78
2018-02-10T10:33:38.619Z,1.74
2018-02-10T10:36:07.625Z,1.68
2018-02-10T10:38:35.926Z,1.78
2018-02-10T10:41:04.186Z,1.55
2018-02-10T10:43:32.433Z,1.95
2018-02-10T10:46:01.503Z,2.06
2018-02-10T10:48:29.715Z,2.02
2018-02-10T10:50:57.976Z,2.07
2018-02-10T10:53:26.987Z,2.25
2018-02-10T10:55:55.248Z,1.98
2018-02-10T10:58:24.336Z,1.87
2018-02-10T11:00:53.500Z,2.44
2018-02-10T11:03:21.926Z,1.93
2018-02-10T11:05:50.187Z,1.83
2018-02-10T11:08:19.201Z,1.94
2018-02-10T11:10:47.458Z,2.39
2018-02-10T11:13:16.477Z,1.85
2018-02-10T11:15:44.742Z,1.95
2018-02-10T11:18:12.990Z,2.25
2018-02-10T11:20:42.012Z,2.23
2018-02-10T11:23:10.264Z,2.29
2018-02-10T11:25:39.283Z,2.23
2018-02-10T11:28:07.564Z,1.96
2018-02-10T11:30:36.566Z,1.76
2018-02-10T11:33:04.807Z,1.85
2018-02-10T11:35:33.818Z,2.09
2018-02-10T11:38:02.082Z,2.24
2018-02-10T11:40:31.093Z,2.28
2018-02-10T11:42:59.362Z,2.54
2018-02-10T11:45:27.597Z,2.54
2018-02-10T11:47:55.855Z,3.07
2018-02-10T11:50:24.094Z,2.39
2018-02-10T11:52:52.362Z,2.10
2018-02-10T11:55:21.362Z,2.72
2018-02-10T11:57:49.614Z,2.22
2018-02-10T12:00:18.629Z,2.15
2018-02-10T12:02:46.898Z,2.11
2018-02-10T12:05:15.130Z,2.01
2018-02-10T12:07:43.385Z,1.91
2018-02-10T12:10:11.638Z,2.23
2018-02-10T12:12:39.898Z,2.15
2018-02-10T12:15:08.147Z,1.96
2018-02-10T12:17:36.410Z,2.21
2018-02-10T12:20:04.658Z,2.15
2018-02-10T12:22:32.903Z,2.32
2018-02-10T12:25:01.146Z,2.55
2018-02-10T12:27:29.413Z,2.28
2018-02-10T12:29:57.650Z,2.10
2018-02-10T12:32:25.908Z,2.23
2018-02-10T12:34:54.160Z,2.24
2018-02-10T12:37:23.174Z,2.54
2018-02-10T12:39:51.552Z,2.20
2018-02-10T12:42:19.838Z,2.13
2018-02-10T12:44:48.820Z,2.01
2018-02-10T12:47:17.088Z,2.08
2018-02-10T12:49:46.102Z,2.08
2018-02-10T12:52:14.345Z,2.23
2018-02-10T12:54:43.373Z,2.29
2018-02-10T12:57:11.622Z,2.06
2018-02-10T12:59:40.638Z,1.96
2018-02-10T13:02:08.901Z,2.04
2018-02-10T13:04:37.149Z,1.76
2018-02-10T13:07:06.173Z,1.86
2018-02-10T13:09:34.422Z,1.85
2018-02-10T13:12:03.482Z,1.87
2018-02-10T13:14:31.734Z,1.83
2018-02-10T13:16:59.978Z,1.68
2018-02-10T13:19:28.996Z,1.91
2018-02-10T13:21:57.255Z,1.74
2018-02-10T13:24:25.508Z,1.68
2018-02-10T13:26:54.525Z,1.60
2018-02-10T13:29:22.777Z,1.66
2018-02-10T13:31:51.869Z,1.53
2018-02-10T13:34:20.126Z,1.61
2018-02-10T13:36:48.370Z,1.77
2018-02-10T13:39:16.621Z,1.70
2018-02-10T13:41:44.865Z,1.74
2018-02-10T13:44:13.134Z,1.53
2018-02-10T13:46:41.389Z,1.56
2018-02-10T13:49:09.642Z,1.60
2018-02-10T13:51:37.900Z,1.65
2018-02-10T13:54:06.153Z,1.58
2018-02-10T13:56:35.186Z,1.54
2018-02-10T13:59:03.442Z,1.53
2018-02-10T14:01:31.688Z,1.68
2018-02-10T14:03:59.937Z,1.68
2018-02-10T14:06:28.203Z,1.68
2018-02-10T14:08:56.450Z,1.60
2018-02-10T14:11:24.694Z,1.68
2018-02-10T14:13:52.982Z,1.64
2018-02-10T14:16:21.190Z,1.61
2018-02-10T14:18:49.456Z,1.56
2018-02-10T14:21:17.707Z,1.53
2018-02-10T14:23:46.736Z,1.52
2018-02-10T14:26:14.983Z,1.59
2018-02-10T14:28:44.014Z,1.31
2018-02-10T14:31:12.250Z,1.45
2018-02-10T14:33:40.511Z,1.55
2018-02-10T14:36:09.526Z,1.52
2018-02-10T14:38:37.777Z,1.50
2018-02-10T14:41:06.802Z,1.48
2018-02-10T14:43:35.058Z,1.63
2018-02-10T14:46:04.072Z,1.67
2018-02-10T14:48:32.322Z,1.53
2018-02-10T14:51:01.353Z,1.66
2018-02-10T14:53:29.594Z,1.58
2018-02-10T14:55:58.606Z,1.39
2018-02-10T14:58:26.872Z,1.52
2018-02-10T15:00:55.876Z,1.49
2018-02-10T15:03:24.137Z,1.44
2018-02-10T15:05:52.394Z,1.45
2018-02-10T15:08:20.654Z,1.51
2018-02-10T15:10:48.898Z,1.56
2018-02-10T15:13:17.153Z,1.47
2018-02-10T15:15:45.405Z,1.68
2018-02-10T15:18:14.425Z,1.75
2018-02-10T15:20:42.681Z,1.53
2018-02-10T15:23:11.703Z,1.28
2018-02-10T15:25:39.958Z,1.29
2018-02-10T15:28:08.211Z,1.42
2018-02-10T15:30:55.016Z,1.44
2018-02-10T15:33:41.710Z,1.54
2018-02-10T15:36:09.956Z,1.38
2018-02-10T15:38:38.209Z,1.26
2018-02-10T15:41:06.458Z,1.41
2018-02-10T15:43:35.480Z,1.31
2018-02-10T15:46:03.742Z,1.31
2018-02-10T15:48:32.764Z,1.22
2018-02-10T15:51:01.025Z,1.32
2018-02-10T15:53:29.281Z,1.32
2018-02-10T15:55:58.289Z,1.44
2018-02-10T15:58:26.556Z,1.25
2018-02-10T16:00:54.818Z,1.35
2018-02-10T16:03:23.830Z,1.30
2018-02-10T16:05:52.098Z,1.23
2018-02-10T16:08:21.106Z,1.26
2018-02-10T16:10:49.365Z,1.22
2018-02-10T16:13:17.621Z,1.24
2018-02-10T16:15:45.886Z,1.17
2018-02-10T16:18:14.132Z,1.27
2018-02-10T16:20:42.395Z,1.13
2018-02-10T16:23:10.647Z,1.16
2018-02-10T16:25:38.909Z,1.07
2018-02-10T16:28:07.930Z,1.09
2018-02-10T16:30:36.198Z,1.00
2018-02-10T16:33:04.451Z,1.05
2018-02-10T16:35:33.478Z,0.98
2018-02-10T16:38:01.738Z,0.96
2018-02-10T16:40:30.008Z,0.91
2018-02-10T16:42:59.021Z,0.86
2018-02-10T16:45:27.277Z,0.90
2018-02-10T16:47:55.542Z,0.89
2018-02-10T16:50:24.565Z,0.88
2018-02-10T16:52:52.817Z,0.85
2018-02-10T16:55:21.852Z,0.92
2018-02-10T16:57:50.114Z,0.91
2018-02-10T17:00:18.382Z,0.96
2018-02-10T17:02:46.637Z,0.99
2018-02-10T17:05:15.657Z,0.89
2018-02-10T17:07:43.913Z,0.95
2018-02-10T17:10:12.947Z,0.92
2018-02-10T17:12:41.201Z,0.97
2018-02-10T17:15:09.458Z,0.88
2018-02-10T17:17:37.723Z,0.88
2018-02-10T17:20:06.753Z,0.90
2018-02-10T17:22:35.010Z,0.99
2018-02-10T17:25:03.281Z,1.37
2018-02-10T17:27:31.537Z,1.11
2018-02-10T17:29:59.819Z,0.97
2018-02-10T17:32:28.832Z,1.13
2018-02-10T17:34:57.086Z,1.67
2018-02-10T17:37:25.341Z,1.58
2018-02-10T17:39:53.590Z,1.53
2018-02-10T17:42:21.853Z,1.44
2018-02-10T17:44:50.124Z,1.16
2018-02-10T17:47:18.389Z,1.69
2018-02-10T17:49:46.644Z,1.66
2018-02-10T17:52:16.568Z,1.68
2018-02-10T17:54:44.809Z,1.37
2018-02-10T17:57:13.083Z,1.25
2018-02-10T17:59:41.335Z,1.29
2018-02-10T18:02:09.608Z,1.17
2018-02-10T18:04:37.865Z,1.04
2018-02-10T18:07:06.127Z,0.86
2018-02-10T18:09:34.408Z,1.04
2018-02-10T18:12:02.680Z,1.02
2018-02-10T18:14:30.929Z,1.08
2018-02-10T18:16:59.203Z,1.11
2018-02-10T18:19:27.464Z,1.13
2018-02-10T18:21:55.717Z,1.16
2018-02-10T18:24:23.975Z,1.12
2018-02-10T18:26:52.305Z,1.17
2018-02-10T18:29:21.330Z,0.99
2018-02-10T18:31:49.582Z,1.03
2018-02-10T18:34:18.612Z,1.03
2018-02-10T18:36:46.861Z,0.93
2018-02-10T18:39:15.127Z,0.92
2018-02-10T18:41:44.207Z,0.94
2018-02-10T18:44:12.413Z,0.88
2018-02-10T18:46:40.665Z,0.90
2018-02-10T18:49:09.702Z,0.95
2018-02-10T18:51:37.946Z,0.86
2018-02-10T18:54:06.969Z,0.87
2018-02-10T18:56:35.267Z,0.80
2018-02-10T18:59:03.477Z,0.84
2018-02-10T19:01:32.499Z,0.83
2018-02-10T19:04:00.753Z,0.75
2018-02-10T19:06:29.770Z,0.78
2018-02-10T19:08:58.201Z,0.76
2018-02-10T19:11:26.449Z,0.68
2018-02-10T19:13:54.706Z,0.66
2018-02-10T19:16:22.961Z,0.63
2018-02-10T19:18:52.298Z,0.62
2018-02-10T19:21:20.549Z,0.63
2018-02-10T19:23:48.816Z,0.59
2018-02-10T19:26:17.083Z,0.56
2018-02-10T19:28:46.107Z,0.60
2018-02-10T19:31:14.365Z,0.63
2018-02-10T19:33:42.626Z,0.66
2018-02-10T19:36:11.673Z,0.55
2018-02-10T19:38:39.983Z,0.55
2018-02-10T19:41:08.323Z,0.59
2018-02-10T19:43:36.697Z,0.59
2018-02-10T19:46:05.095Z,0.55
2018-02-10T19:48:33.378Z,0.57
2018-02-10T19:51:01.648Z,0.58
2018-02-10T19:53:29.916Z,0.48
2018-02-10T19:55:58.294Z,0.51
2018-02-10T19:58:26.558Z,0.47
2018-02-10T20:00:54.826Z,0.44
2018-02-10T20:03:23.097Z,0.47
2018-02-10T20:05:51.401Z,0.44
2018-02-10T20:08:19.653Z,0.47
2018-02-10T20:10:48.043Z,0.51
2018-02-10T20:13:16.329Z,0.52
2018-02-10T20:15:44.591Z,0.54
2018-02-10T20:18:12.838Z,0.52
2018-02-10T20:20:41.099Z,0.49
2018-02-10T20:23:10.122Z,0.54
2018-02-10T20:25:38.382Z,0.59
2018-02-10T20:28:06.638Z,0.53
2018-02-10T20:30:35.675Z,0.48
2018-02-10T20:33:03.933Z,0.50
2018-02-10T20:35:32.193Z,0.50
2018-02-10T20:38:00.442Z,0.50
2018-02-10T20:40:28.704Z,0.47
2018-02-10T20:42:56.954Z,0.47
2018-02-10T20:45:25.213Z,0.53
2018-02-10T20:47:53.461Z,0.49
2018-02-10T20:50:22.498Z,0.52
2018-02-10T20:52:50.742Z,0.54
2018-02-10T20:55:19.000Z,0.50
2018-02-10T20:57:48.020Z,0.52
2018-02-10T21:00:16.302Z,0.52
2018-02-10T21:02:44.551Z,0.41
2018-02-10T21:05:13.562Z,0.40
2018-02-10T21:07:41.826Z,0.42
2018-02-10T21:10:10.845Z,0.44
2018-02-10T21:12:39.120Z,0.41
2018-02-10T21:15:07.379Z,0.37
2018-02-10T21:17:35.643Z,0.31
2018-02-10T21:20:04.660Z,0.34
2018-02-10T21:22:32.918Z,0.33
2018-02-10T21:25:01.930Z,0.37
2018-02-10T21:27:30.186Z,0.31
2018-02-10T21:29:59.201Z,0.28
2018-02-10T21:32:27.462Z,0.32
2018-02-10T21:34:55.719Z,0.29
2018-02-10T21:37:24.749Z,0.28
2018-02-10T21:39:53.005Z,0.24
2018-02-10T21:42:21.262Z,0.24
2018-02-10T21:44:50.277Z,0.21
2018-02-10T21:47:18.539Z,0.17
2018-02-10T21:49:47.563Z,0.24
2018-02-10T21:52:15.822Z,0.13
2018-02-10T21:54:44.086Z,0.16
2018-02-10T21:57:13.103Z,0.08
2018-02-10T21:59:41.344Z,0.01
2018-02-10T22:02:10.371Z,0.03
2018-02-10T22:04:38.622Z,0.04
2018-02-10T22:07:07.669Z,0.10
2018-02-10T22:09:36.129Z,0.05
2018-02-10T22:12:04.701Z,0.01
2018-02-10T22:14:33.188Z,0.01
2018-02-10T22:17:01.776Z,0.02
2018-02-10T22:19:30.256Z,0.06
2018-02-10T22:21:58.946Z,0.09
2018-02-10T22:24:27.405Z,0.10
2018-02-10T22:26:55.891Z,0.10
2018-02-10T22:29:24.148Z,0.13
2018-02-10T22:31:52.413Z,0.19
2018-02-10T22:34:21.430Z,0.20
2018-02-10T22:36:49.995Z,0.27
2018-02-10T22:39:18.358Z,0.25
2018-02-10T22:41:46.618Z,0.32
2018-02-10T22:44:14.874Z,0.31
2018-02-10T22:46:43.131Z,0.41
2018-02-10T22:49:11.392Z,0.38
2018-02-10T22:51:39.654Z,0.37
2018-02-10T22:54:08.669Z,0.41
2018-02-10T22:56:36.922Z,0.49
2018-02-10T22:59:05.175Z,0.48
2018-02-10T23:01:33.434Z,0.47
2018-02-10T23:04:01.700Z,0.51
2018-02-10T23:06:29.957Z,0.56
2018-02-10T23:08:58.205Z,0.59
2018-02-10T23:11:26.467Z,0.65
2018-02-10T23:13:55.480Z,0.62
2018-02-10T23:16:23.747Z,0.62
2018-02-10T23:18:52.991Z,0.66
2018-02-10T23:21:21.254Z,0.68
2018-02-10T23:23:49.514Z,0.64
2018-02-10T23:26:17.769Z,0.71
2018-02-10T23:28:46.781Z,0.71
2018-02-10T23:31:15.067Z,0.73
2018-02-10T23:33:43.323Z,0.73
2018-02-10T23:36:11.575Z,0.74
2018-02-10T23:38:40.646Z,0.78
2018-02-10T23:41:08.898Z,0.74
2018-02-10T23:43:37.153Z,0.73
2018-02-10T23:46:05.404Z,0.79
2018-02-10T23:48:34.438Z,0.73
2018-02-10T23:51:02.693Z,0.81
2018-02-10T23:53:30.960Z,0.79
2018-02-10T23:55:59.206Z,0.73
2018-02-10T23:58:28.247Z,0.81
